Date,TemperatureHighF,TemperatureAvgF,TemperatureLowF,DewpointHighF,DewpointAvgF,DewpointLowF,HumidityHigh,HumidityAvg,HumidityLow,PressureMaxIn,PressureMinIn,WindSpeedMaxMPH,WindSpeedAvgMPH,GustSpeedMaxMPH,PrecipitationSumIn
2013-1-1,27.3,15.2,-2.6,26.0,9.2,-5.3,99,78,51,29.95,29.64,18,1,18,0.04
2013-1-2,15.0,1.1,-11.1,8.4,-4.8,-15.5,88,77,52,30.26,29.91,13,1,13,0.01
2013-1-3,10.4,-4.3,-17.1,-1.5,-11.1,-22.1,86,73,48,30.27,29.97,6,0,6,0.00
2013-1-4,30.8,17.1,-2.8,26.9,12.8,-5.9,98,83,66,29.97,29.73,13,1,14,0.01
2013-1-5,30.4,20.7,4.1,26.9,13.8,2.1,97,75,56,30.26,29.74,15,1,15,0.00
2013-1-6,27.1,17.7,5.0,25.9,15.6,2.7,100,91,81,30.23,29.90,6,0,6,0.04
2013-1-7,26.8,17.1,-1.5,26.7,12.7,-4.4,100,84,57,30.38,29.92,8,1,8,0.00
2013-1-8,38.1,11.9,-4.4,23.6,7.2,-7.8,96,83,49,30.39,30.22,7,0,7,0.00
2013-1-9,36.8,15.4,3.0,29.1,12.8,0.7,97,90,71,30.40,29.93,13,0,13,0.00
2013-1-10,36.3,33.7,24.3,31.8,25.7,20.8,97,72,63,30.54,29.96,18,2,18,0.05
2013-1-11,33.0,25.3,14.7,30.8,22.0,14.0,100,88,67,30.55,30.14,5,0,5,0.13
2013-1-12,40.2,33.2,30.7,38.3,33.0,30.7,100,99,90,30.17,30.08,8,0,8,0.00
2013-1-13,40.8,35.6,31.8,40.8,35.6,31.8,100,100,100,30.13,29.90,10,1,10,0.01
2013-1-14,50.8,37.5,28.4,45.9,32.7,23.5,100,84,52,30.25,29.80,13,1,13,0.00
2013-1-15,32.9,28.8,24.0,25.9,21.6,16.7,88,75,54,30.31,30.22,7,0,7,0.00
2013-1-16,27.7,25.7,24.0,27.2,23.8,20.2,100,93,83,30.24,29.76,5,0,5,0.20
2013-1-17,28.0,17.9,7.3,28.0,10.2,-8.4,100,74,38,30.16,29.77,14,1,14,0.00
2013-1-18,16.3,3.5,-8.5,-1.3,-7.3,-14.6,86,63,35,30.39,30.14,12,1,12,0.00
2013-1-19,26.7,16.8,-1.3,24.4,14.4,-4.7,100,90,81,30.31,29.77,3,0,3,0.08
2013-1-20,38.6,25.3,13.1,30.5,19.1,8.9,100,80,44,29.91,29.44,24,3,24,0.01
2013-1-21,19.3,8.7,-5.9,11.5,1.3,-9.7,91,74,41,30.08,29.80,12,1,12,0.00
2013-1-22,16.6,7.9,-5.1,8.3,1.5,-14.5,92,75,46,30.07,29.79,8,1,8,0.04
2013-1-23,1.4,-8.4,-20.1,-9.8,-18.6,-25.8,81,62,33,30.20,30.07,8,1,8,0.00
2013-1-24,9.4,-7.8,-24.3,-9.7,-20.1,-38.4,75,57,27,30.34,30.10,13,1,13,0.00
2013-1-25,12.9,3.8,-6.3,-2.0,-8.2,-12.9,75,58,35,30.36,30.10,12,1,12,0.00
2013-1-26,14.5,6.5,-3.8,-0.7,-4.6,-9.4,85,61,36,30.27,30.08,13,1,13,0.00
2013-1-27,17.1,1.9,-10.9,-0.3,-7.8,-15.3,85,66,31,30.53,30.27,11,1,11,0.00
2013-1-28,14.2,4.5,-8.3,12.3,0.9,-12.3,92,84,66,30.51,30.07,3,0,4,0.21
2013-1-29,26.7,16.0,0.8,25.9,13.0,-2.4,99,88,78,30.21,30.05,10,0,10,0.01
2013-1-30,48.7,37.0,25.9,47.1,36.6,25.7,100,99,92,30.05,29.32,19,1,19,0.10
2013-1-31,52.2,36.0,23.0,52.1,27.6,6.1,100,74,46,29.48,28.77,28,4,28,0.59
2013-2-1,22.8,16.8,10.8,11.1,5.1,-0.1,78,60,47,30.09,29.48,19,2,19,0.00
2013-2-2,19.4,12.5,2.7,14.4,5.5,-1.4,94,74,52,30.19,30.04,17,2,17,0.01
2013-2-3,26.4,15.1,4.5,14.6,9.4,2.0,94,79,49,30.04,29.71,6,1,6,0.00
2013-2-4,23.1,15.4,4.1,12.9,4.2,-6.3,95,64,32,29.92,29.69,24,1,24,0.00
2013-2-5,20.2,8.6,-3.4,5.0,-3.1,-8.8,86,61,31,30.05,29.92,9,1,9,0.00
2013-2-6,30.4,17.9,8.7,21.1,7.3,-9.8,79,63,42,30.35,29.90,18,1,18,0.00
2013-2-7,15.8,9.7,1.0,-4.4,-8.5,-14.2,75,45,27,30.58,30.35,12,2,12,0.00
2013-2-8,23.3,16.2,10.9,22.1,11.0,-6.9,95,82,40,30.47,29.89,16,1,16,0.26
2013-2-9,14.4,9.9,-3.2,12.2,4.2,-7.3,92,78,62,30.34,29.87,17,3,19,0.11
2013-2-10,27.0,3.9,-15.8,10.2,-4.4,-20.6,90,71,29,30.50,30.34,6,0,6,0.00
2013-2-11,29.6,16.6,-0.9,29.6,15.0,-3.6,100,93,83,30.35,29.58,8,0,8,0.10
2013-2-12,35.2,31.7,28.4,33.0,29.1,25.1,100,90,76,29.80,29.57,12,1,14,0.02
2013-2-13,34.6,29.3,24.0,26.4,23.6,21.0,94,80,59,29.82,29.73,10,1,10,0.00
2013-2-14,35.6,27.7,21.9,24.7,20.9,17.0,95,77,48,29.96,29.71,11,0,11,0.00
2013-2-15,43.4,30.4,21.8,28.5,23.4,18.8,96,77,49,29.94,29.83,20,1,20,0.00
2013-2-16,31.2,25.0,18.2,25.6,16.3,3.6,100,72,47,29.97,29.85,13,1,13,0.06
2013-2-17,18.2,12.7,7.9,5.3,1.8,-1.4,74,61,49,29.85,29.57,20,3,20,0.00
2013-2-18,23.7,11.1,2.5,-0.3,-4.2,-11.8,71,53,21,30.16,29.78,14,1,16,0.00
2013-2-19,38.6,20.8,0.4,31.4,8.7,-5.6,100,64,27,30.19,29.55,22,2,24,0.04
2013-2-20,31.7,25.5,19.8,31.7,22.5,17.5,100,89,71,29.72,29.51,10,1,10,0.11
2013-2-21,19.8,15.1,9.4,17.6,9.9,3.0,92,80,64,30.31,29.72,12,1,12,0.02
2013-2-22,34.8,23.7,10.3,24.4,18.5,8.9,96,82,55,30.45,30.27,10,1,10,0.00
2013-2-23,32.7,29.8,24.0,30.1,26.0,20.5,100,86,70,30.27,29.92,13,1,14,0.05
2013-2-24,33.2,31.1,29.5,33.0,31.0,29.5,100,100,98,29.92,29.76,7,0,7,0.05
2013-2-25,35.9,31.7,29.5,32.6,30.2,27.4,100,95,74,30.22,29.90,8,0,8,0.00
2013-2-26,38.2,32.7,27.5,32.3,28.7,24.5,100,86,68,30.32,30.14,11,1,11,0.00
2013-2-27,37.5,31.2,27.0,33.2,29.8,25.9,100,95,77,30.14,29.64,17,1,17,0.05
2013-2-28,42.8,34.4,29.9,33.8,31.8,29.9,100,91,67,29.64,29.52,8,0,8,0.02
2013-3-1,33.5,30.7,28.6,30.2,27.9,25.4,100,90,74,29.71,29.55,10,1,10,0.01
2013-3-2,34.8,28.8,24.3,27.6,25.5,22.6,97,88,64,29.73,29.67,16,1,16,0.05
2013-3-3,31.5,26.0,23.0,26.0,22.9,19.4,97,88,77,29.70,29.61,11,1,11,0.02
2013-3-4,27.0,23.5,21.3,20.7,19.1,17.7,90,83,70,29.86,29.65,12,1,12,0.01
2013-3-5,39.5,29.1,21.5,28.9,24.3,18.8,96,83,62,30.08,29.86,12,1,12,0.00
2013-3-6,37.9,32.0,27.4,29.4,26.4,21.8,99,80,54,30.20,30.08,17,2,17,0.00
2013-3-7,35.9,31.1,27.5,24.5,22.7,21.1,79,71,62,30.19,30.10,18,4,18,0.00
2013-3-8,41.5,31.5,22.4,26.2,22.6,20.4,92,70,47,30.28,30.08,12,2,12,0.00
2013-3-9,52.8,31.2,15.3,27.0,20.3,14.6,98,71,25,30.34,30.23,10,1,10,0.00
2013-3-10,51.1,35.3,18.3,29.0,23.4,18.1,100,67,33,30.39,30.17,17,2,17,0.00
2013-3-11,48.1,40.2,31.1,32.1,29.8,26.0,89,67,47,30.20,30.01,13,2,14,0.00
2013-3-12,49.0,44.9,38.1,47.6,42.2,29.8,100,91,56,30.01,29.65,18,2,18,0.36
2013-3-13,39.8,35.0,26.8,37.9,31.4,26.5,100,88,60,29.79,29.71,16,0,16,0.04
2013-3-14,29.9,23.7,13.9,26.8,16.3,3.1,100,74,54,29.88,29.70,14,2,14,0.00
2013-3-15,33.5,21.7,11.8,24.8,10.4,2.8,91,63,34,29.89,29.58,18,2,19,0.00
2013-3-16,29.0,23.0,15.7,21.9,12.6,5.8,94,66,41,29.91,29.68,11,1,11,0.02
2013-3-17,24.7,15.1,4.7,11.8,3.2,-6.6,91,63,29,30.35,29.91,17,2,17,0.00
2013-3-18,31.8,18.2,0.6,13.8,1.9,-4.7,89,55,21,30.47,30.16,13,1,13,0.00
2013-3-19,30.7,26.1,21.5,27.4,23.1,0.4,100,90,27,30.16,29.72,21,1,21,0.34
2013-3-20,31.5,24.2,15.8,26.6,20.4,14.4,98,86,60,29.73,29.63,16,1,16,0.03
2013-3-21,35.5,22.8,6.3,20.3,13.2,4.2,96,70,36,29.75,29.59,12,1,16,0.00
2013-3-22,33.5,24.3,12.8,25.0,17.8,11.2,94,77,48,29.72,29.62,8,1,8,0.00
2013-3-23,33.2,27.8,22.2,26.2,22.7,18.2,98,82,58,29.76,29.60,15,2,15,0.04
2013-3-24,37.1,31.5,24.0,24.4,23.1,21.2,91,72,56,29.84,29.75,12,1,12,0.00
2013-3-25,45.0,31.5,15.8,28.1,22.5,15.3,99,73,41,29.81,29.55,18,2,18,0.00
2013-3-26,44.4,35.2,24.6,28.1,22.9,18.4,90,63,38,29.79,29.57,16,2,16,0.00
2013-3-27,42.9,31.6,20.5,34.2,27.0,20.0,100,85,53,29.91,29.76,11,1,11,0.06
2013-3-28,46.0,36.5,30.8,36.2,31.6,29.2,100,84,55,30.03,29.90,8,1,12,0.02
2013-3-29,46.8,37.2,30.2,38.2,31.5,29.0,100,82,52,30.05,29.98,11,0,11,0.02
2013-3-30,49.1,36.5,24.9,31.6,22.1,9.8,100,63,23,30.10,30.01,14,1,14,0.00
2013-3-31,54.6,38.0,18.6,37.5,21.2,17.5,97,58,24,30.11,29.74,22,2,22,0.01
2013-4-1,46.5,36.8,27.7,41.7,32.2,10.8,100,85,47,29.74,29.47,17,2,17,0.27
2013-4-2,32.3,25.7,18.5,20.9,15.1,8.9,97,66,39,29.85,29.72,22,2,22,0.02
2013-4-3,39.2,29.4,20.4,22.2,12.8,3.8,94,54,23,30.14,29.84,19,2,20,0.00
2013-4-4,48.7,34.2,20.7,25.3,13.9,4.5,79,47,20,30.24,29.92,19,2,20,0.00
2013-4-5,50.8,35.9,26.4,29.9,23.0,13.8,87,62,27,29.92,29.73,14,2,20,0.00
2013-4-6,35.8,27.9,20.7,18.1,6.3,-0.9,76,42,22,30.31,29.91,18,2,19,0.00
2013-4-7,53.6,39.0,23.0,34.6,20.5,9.9,74,50,26,30.30,29.84,28,4,28,0.00
2013-4-8,53.1,43.6,35.0,37.1,32.0,28.5,83,65,39,30.11,29.86,14,2,14,0.00
2013-4-9,47.9,41.5,35.2,44.7,38.6,30.0,100,90,71,30.04,29.83,13,1,13,0.09
2013-4-10,47.5,41.0,36.3,43.9,39.6,36.2,100,95,79,29.99,29.89,6,0,6,0.24
2013-4-11,42.5,37.7,30.8,39.2,23.0,9.2,100,61,27,30.18,29.88,17,1,19,0.01
2013-4-12,33.5,31.4,29.5,31.7,26.7,17.9,100,84,53,30.18,29.84,8,0,13,0.39
2013-4-13,46.9,36.1,30.5,39.8,34.4,30.5,100,94,68,29.90,29.76,7,0,7,0.04
2013-4-14,42.5,36.2,27.8,39.9,33.2,27.3,100,89,63,30.22,29.87,13,1,17,0.07
2013-4-15,57.2,39.8,24.1,34.5,29.1,24.1,100,72,31,30.36,30.21,15,2,15,0.01
2013-4-16,58.7,46.9,31.8,52.5,40.7,30.8,100,81,54,30.28,29.91,30,3,30,0.10
2013-4-17,54.5,44.5,29.9,49.7,32.8,25.0,100,68,35,30.35,30.00,17,1,17,0.00
2013-4-18,57.2,42.0,26.1,39.5,29.7,22.5,99,66,37,30.41,29.96,25,3,27,0.00
2013-4-19,72.9,63.5,53.9,61.4,53.1,39.6,96,70,50,29.96,29.43,30,7,31,0.15
2013-4-20,54.5,44.5,35.0,53.4,32.4,17.4,100,67,37,30.22,29.58,21,3,21,0.27
2013-4-21,45.3,35.4,26.1,21.9,17.6,12.3,78,50,27,30.70,30.22,15,2,17,0.00
2013-4-22,52.5,37.7,20.2,24.4,17.9,11.0,96,52,21,30.77,30.57,22,2,22,0.00
2013-4-23,47.4,36.5,21.9,36.0,28.0,19.7,94,73,46,30.58,30.16,13,1,13,0.00
2013-4-24,72.9,50.6,27.7,48.1,36.7,27.7,100,67,22,30.16,29.62,16,1,17,0.00
2013-4-25,64.1,49.2,31.1,49.9,31.7,19.5,82,53,27,30.31,29.62,19,2,19,0.00
2013-4-26,56.6,39.0,24.6,38.7,28.7,23.4,97,71,30,30.42,30.30,13,1,13,0.00
2013-4-27,61.9,45.0,27.8,37.5,30.7,23.5,100,65,24,30.44,30.26,14,1,14,0.00
2013-4-28,69.8,50.9,27.5,36.6,31.5,27.3,100,55,25,30.33,30.12,21,2,21,0.00
2013-4-29,70.7,54.3,36.0,43.8,37.2,32.6,93,57,27,30.22,30.08,19,2,19,0.00
2013-4-30,72.9,60.8,50.2,44.3,38.9,29.9,76,47,26,30.28,30.18,17,1,17,0.00
2013-5-1,76.8,58.2,35.8,41.7,35.7,30.1,96,51,19,30.43,30.28,13,1,13,0.00
2013-5-2,80.2,58.3,37.8,42.3,38.2,31.3,94,53,22,30.44,30.27,12,1,12,0.00
2013-5-3,69.6,53.1,33.8,43.2,36.3,30.0,91,57,30,30.52,30.30,14,1,14,0.00
2013-5-4,75.9,57.7,36.3,45.4,36.2,26.3,100,55,17,30.35,30.14,16,2,16,0.00
2013-5-5,75.2,56.4,35.9,40.3,35.6,30.6,98,53,21,30.28,30.09,13,2,13,0.00
2013-5-6,77.2,57.3,36.3,41.5,34.7,21.3,97,53,14,30.22,30.03,14,1,14,0.00
2013-5-7,81.8,59.6,36.8,47.0,36.7,22.7,96,52,12,30.13,29.99,11,1,11,0.00
2013-5-8,77.2,59.8,42.3,57.0,48.4,41.2,97,69,30,30.16,30.01,21,2,21,0.00
2013-5-9,71.5,62.7,55.6,61.2,56.0,50.0,100,80,47,30.01,29.83,18,1,18,0.26
2013-5-10,73.3,61.5,53.3,58.2,55.1,52.2,100,82,49,29.94,29.81,8,1,8,0.00
2013-5-11,65.8,58.8,53.3,61.8,58.1,53.1,100,98,81,29.81,29.60,13,0,13,0.43
2013-5-12,63.6,52.5,37.9,53.1,44.9,26.9,100,78,44,29.74,29.54,11,0,11,0.00
2013-5-13,48.6,42.0,35.0,33.8,29.3,24.8,90,62,46,30.04,29.73,21,3,21,0.00
2013-5-14,53.9,42.5,30.1,38.0,28.2,20.1,100,64,28,30.09,29.96,12,2,13,0.00
2013-5-15,64.1,45.1,25.6,49.1,35.1,25.1,100,75,26,30.04,29.61,19,2,22,0.14
2013-5-16,73.3,57.7,43.2,50.6,42.7,30.3,100,64,22,29.83,29.55,17,2,17,0.00
2013-5-17,62.5,52.0,45.1,44.1,39.7,34.6,86,65,38,30.20,29.83,16,1,16,0.00
2013-5-18,68.3,54.1,36.6,48.0,39.9,31.4,100,65,27,30.31,30.18,10,1,10,0.00
2013-5-19,68.1,52.9,40.8,54.6,46.3,39.1,100,82,36,30.31,30.11,13,1,16,0.29
2013-5-20,67.4,57.5,51.3,61.0,55.9,51.3,100,95,72,30.11,29.95,8,0,8,0.03
2013-5-21,72.0,58.8,50.0,64.0,55.5,49.2,100,90,71,29.99,29.84,13,2,13,0.38
2013-5-22,72.9,57.9,49.6,63.8,55.9,49.6,100,94,73,29.91,29.79,14,0,14,0.18
2013-5-23,73.1,65.5,55.8,66.3,61.0,55.5,100,86,72,29.82,29.69,17,1,19,0.03
2013-5-24,65.6,53.1,43.8,63.3,51.5,42.3,100,94,82,29.92,29.60,12,2,14,1.36
2013-5-25,44.0,39.8,31.4,44.0,39.3,31.4,100,98,87,29.91,29.82,18,2,18,1.12
2013-5-26,48.8,39.6,31.7,42.9,37.1,31.7,100,91,74,30.06,29.79,11,0,11,0.16
2013-5-27,62.5,47.2,31.7,44.6,35.7,29.0,100,71,29,30.18,30.05,11,1,11,0.00
2013-5-28,70.7,53.9,32.9,52.1,39.8,32.3,100,66,27,30.25,30.08,14,1,17,0.00
2013-5-29,61.7,53.5,48.4,58.3,52.2,45.4,100,95,72,30.12,29.94,8,0,8,0.21
2013-5-30,82.3,68.4,55.0,64.7,60.3,55.0,100,79,46,30.03,29.96,12,1,12,0.00
2013-5-31,88.3,71.7,55.2,68.7,61.8,55.2,100,76,42,30.07,29.86,12,1,12,0.00
2013-6-1,89.2,73.2,57.6,68.7,63.2,56.1,100,75,35,29.91,29.77,21,1,21,0.00
2013-6-2,86.4,70.6,62.2,70.9,65.9,61.7,100,87,51,29.80,29.58,18,1,18,0.38
2013-6-3,75.4,64.0,48.7,64.7,56.4,47.9,100,79,46,29.80,29.70,19,1,19,0.00
2013-6-4,60.4,51.5,41.5,48.4,43.4,40.4,100,76,49,30.09,29.80,13,1,13,0.00
2013-6-5,68.8,54.7,38.2,46.3,39.8,28.5,100,64,23,30.18,30.07,11,1,11,0.00
2013-6-6,72.2,59.2,47.1,53.5,45.9,38.9,96,65,33,30.18,30.05,14,1,16,0.02
2013-6-7,54.9,52.0,49.0,53.8,51.4,47.5,100,98,86,30.07,29.88,9,0,10,0.35
2013-6-8,63.5,56.7,50.5,58.6,54.7,50.5,100,93,81,30.00,29.72,7,0,8,0.32
2013-6-9,71.9,61.1,51.3,58.6,54.6,50.3,100,82,50,30.18,29.99,11,0,11,0.00
2013-6-10,72.6,59.0,46.0,58.3,51.7,46.0,100,80,46,30.21,29.98,10,1,12,0.04
2013-6-11,59.8,55.4,53.3,58.2,55.2,53.3,100,99,90,29.98,29.57,6,0,6,1.09
2013-6-12,63.8,56.7,51.6,55.3,53.2,51.6,100,89,66,29.83,29.56,13,1,13,0.05
2013-6-13,67.3,56.5,46.9,59.3,53.5,46.9,100,91,60,29.82,29.67,16,0,16,0.01
2013-6-14,75.4,62.4,52.1,56.6,52.0,43.2,100,74,34,29.79,29.66,12,1,13,0.00
2013-6-15,72.6,59.0,43.1,52.3,45.0,35.2,100,66,27,29.91,29.79,10,0,11,0.00
2013-6-16,70.8,56.6,42.3,61.3,51.9,42.3,100,87,54,29.91,29.68,20,1,20,0.25
2013-6-17,72.4,60.4,51.6,64.5,58.2,51.6,100,93,63,29.89,29.75,18,1,18,0.27
2013-6-18,66.1,57.6,47.6,56.7,52.3,46.3,100,84,50,29.97,29.89,8,0,8,0.01
2013-6-19,68.8,55.7,42.2,49.8,44.3,37.9,100,71,35,30.17,29.95,14,1,14,0.00
2013-6-20,72.6,57.0,38.8,55.4,46.1,38.8,100,72,36,30.26,30.14,10,1,10,0.00
2013-6-21,79.2,61.4,44.4,60.8,51.6,44.4,100,75,37,30.24,30.16,8,0,11,0.00
2013-6-22,80.6,63.2,52.7,69.7,60.1,52.7,100,91,56,30.19,30.08,8,0,8,0.59
2013-6-23,82.3,68.9,61.2,72.7,66.3,61.2,100,93,67,30.09,29.93,18,1,18,0.53
2013-6-24,87.0,71.5,62.8,73.3,66.8,62.8,100,88,52,29.95,29.85,17,0,17,0.07
2013-6-25,85.2,69.3,61.4,75.6,66.9,61.4,100,93,60,29.88,29.69,16,0,16,0.58
2013-6-26,70.1,66.2,63.2,68.9,66.0,63.2,100,99,87,29.80,29.71,7,0,7,0.13
2013-6-27,79.6,69.8,60.1,70.3,65.2,60.1,100,86,67,29.79,29.70,8,1,11,0.00
2013-6-28,75.0,65.6,59.8,67.4,63.5,59.8,100,93,73,29.70,29.41,20,1,20,0.56
2013-6-29,78.5,68.5,62.2,70.4,66.0,62.2,100,92,60,29.64,29.46,14,0,14,0.33
2013-6-30,81.6,72.0,61.9,70.4,65.3,61.3,100,82,54,29.89,29.64,14,1,14,0.19
2013-7-1,75.7,69.0,64.9,71.2,67.6,64.9,100,96,81,30.03,29.89,8,0,8,0.54
2013-7-2,71.9,65.9,62.5,68.9,65.1,62.3,100,97,86,30.14,30.01,10,1,10,0.31
2013-7-3,84.5,70.5,60.7,74.0,67.5,60.7,100,91,63,30.15,30.06,14,1,16,0.07
2013-7-4,87.5,74.4,66.4,75.7,71.0,66.4,100,90,59,30.16,30.02,12,0,12,0.04
2013-7-5,86.4,75.1,66.8,77.0,71.0,66.8,100,89,62,30.11,29.99,14,1,14,0.01
2013-7-6,84.1,71.9,62.5,73.3,67.7,60.4,100,89,51,30.03,29.95,7,0,11,0.02
2013-7-7,82.7,70.6,59.5,72.3,65.6,59.5,100,86,60,30.00,29.87,9,0,9,0.00
2013-7-8,79.6,69.8,66.4,73.7,69.1,66.4,100,98,72,30.01,29.90,7,0,7,0.64
2013-7-9,81.0,72.1,65.9,70.7,67.8,65.9,100,87,67,30.06,29.97,16,1,16,0.00
2013-7-10,75.7,69.3,66.4,71.4,67.7,64.8,100,95,79,30.00,29.72,10,1,12,0.75
2013-7-11,78.7,68.7,58.2,71.2,65.4,58.2,100,90,59,29.99,29.70,8,0,9,0.27
2013-7-12,80.2,65.2,53.6,66.4,58.4,53.2,100,82,42,30.18,29.98,8,1,8,0.00
2013-7-13,81.6,68.9,56.1,67.5,62.9,56.1,100,83,55,30.27,30.18,8,1,10,0.00
2013-7-14,83.5,71.9,62.2,73.3,67.5,62.2,100,87,63,30.29,30.17,10,0,10,0.00
2013-7-15,89.6,74.7,63.2,72.7,66.6,60.2,100,79,44,30.20,30.08,10,0,10,0.00
2013-7-16,87.3,75.0,61.9,71.7,66.8,61.9,100,79,48,30.17,30.11,6,0,10,0.00
2013-7-17,90.7,75.8,61.9,75.2,68.4,61.9,100,81,48,30.17,29.90,20,1,20,1.70
2013-7-18,87.7,74.4,66.3,78.2,70.1,66.3,100,88,57,30.00,29.89,18,1,19,0.35
2013-7-19,90.3,77.8,67.8,77.1,72.1,67.8,100,84,59,29.90,29.60,21,2,21,0.00
2013-7-20,83.0,73.7,62.7,74.2,68.6,60.6,100,85,57,29.78,29.59,17,1,17,0.03
2013-7-21,77.4,68.7,58.9,64.3,60.7,56.2,100,78,49,30.00,29.78,11,1,11,0.00
2013-7-22,77.9,66.9,53.9,69.2,62.1,53.9,100,86,67,30.01,29.85,11,1,12,0.00
2013-7-23,74.4,67.9,64.8,73.1,67.5,64.8,100,99,86,29.85,29.52,6,0,6,0.84
2013-7-24,69.9,64.5,55.9,69.1,60.4,49.7,100,87,65,30.02,29.55,13,1,13,0.01
2013-7-25,73.3,62.8,48.8,63.8,54.6,48.5,100,76,52,30.09,30.01,8,1,8,0.00
2013-7-26,75.8,65.5,58.0,65.2,61.0,58.0,100,87,63,30.08,29.95,10,1,10,0.00
2013-7-27,82.0,68.3,56.2,67.5,60.4,52.9,100,80,40,30.03,29.93,10,0,10,0.00
2013-7-28,79.8,69.0,57.2,69.6,64.3,57.2,100,86,66,29.99,29.90,13,0,13,0.00
2013-7-29,81.8,71.6,60.9,70.8,65.8,57.4,100,84,51,30.03,29.92,11,1,11,0.08
2013-7-30,76.7,67.3,58.9,62.6,58.7,52.8,100,77,47,30.08,30.02,7,0,9,0.00
2013-7-31,81.2,65.1,53.6,63.8,57.7,53.6,100,81,42,30.13,29.99,9,0,9,0.00
2013-8-1,80.5,66.2,53.6,67.2,60.9,53.6,100,86,49,30.01,29.80,13,1,18,0.14
2013-8-2,81.2,69.4,59.6,67.4,62.4,54.3,100,82,43,29.82,29.72,10,1,12,0.02
2013-8-3,74.2,64.4,55.7,64.8,58.9,55.6,100,84,57,29.81,29.73,12,1,12,0.12
2013-8-4,72.3,61.8,54.7,63.7,57.3,52.1,100,87,57,29.88,29.77,11,1,12,0.07
2013-8-5,71.5,60.2,49.5,54.7,49.0,37.8,100,71,34,30.03,29.88,11,1,14,0.00
2013-8-6,76.7,60.3,44.8,62.2,52.4,44.8,100,79,41,30.13,30.03,10,0,10,0.00
2013-8-7,78.3,65.1,49.9,63.5,56.3,49.9,100,76,46,30.15,30.01,16,1,16,0.00
2013-8-8,81.4,73.0,66.9,72.3,67.1,59.8,100,82,65,30.01,29.92,15,1,16,0.00
2013-8-9,72.7,69.5,66.0,72.7,69.5,66.0,100,100,100,29.94,29.72,8,0,8,1.02
2013-8-10,75.8,66.8,52.3,67.1,58.6,47.4,100,79,38,30.01,29.75,11,0,11,0.00
2013-8-11,76.3,61.5,48.8,62.9,54.8,48.6,100,82,44,30.07,29.95,13,0,14,0.00
2013-8-12,79.4,65.3,53.6,65.1,58.2,52.3,100,81,41,30.00,29.88,11,0,11,0.00
2013-8-13,69.8,62.4,55.6,68.5,62.1,55.6,100,99,93,29.88,29.65,6,0,6,0.25
2013-8-14,70.4,60.8,50.8,62.6,57.9,50.8,100,91,61,29.92,29.63,11,0,11,0.16
2013-8-15,71.5,58.3,45.8,59.2,52.4,45.8,100,84,48,30.07,29.92,12,1,12,0.00
2013-8-16,76.5,61.8,48.6,63.0,55.3,48.6,100,83,47,30.19,30.07,10,1,10,0.00
2013-8-17,76.8,63.8,53.6,62.3,57.5,51.7,100,83,44,30.29,30.18,8,1,8,0.00
2013-8-18,76.3,61.8,49.5,68.1,57.3,49.5,100,87,48,30.28,30.06,8,0,8,0.00
2013-8-19,81.8,65.6,52.8,68.5,60.1,52.8,100,85,48,30.06,29.92,11,0,11,0.00
2013-8-20,83.0,67.9,56.3,68.3,61.7,56.3,100,84,41,30.07,29.97,10,0,10,0.00
2013-8-21,85.3,70.1,57.8,71.5,63.9,57.8,100,83,53,30.13,29.97,11,1,12,0.00
2013-8-22,85.7,71.8,59.8,69.8,65.4,59.8,100,83,49,29.99,29.76,14,1,14,0.11
2013-8-23,74.6,65.2,50.8,67.1,56.7,47.2,100,77,41,30.17,29.81,16,1,16,0.00
2013-8-24,76.0,59.3,45.2,59.0,50.7,45.0,100,78,35,30.33,30.17,10,0,10,0.00
2013-8-25,77.4,60.8,45.4,62.9,53.7,45.4,100,81,44,30.38,30.12,11,0,11,0.01
2013-8-26,73.3,66.1,59.8,70.9,65.2,59.3,100,97,85,30.14,29.85,6,0,6,0.18
2013-8-27,84.0,71.8,64.3,71.7,67.0,62.3,100,87,51,29.89,29.81,8,0,8,0.00
2013-8-28,87.4,71.7,60.9,73.8,66.4,60.7,100,86,49,29.94,29.80,11,0,11,0.16
2013-8-29,77.4,68.2,63.2,67.5,64.9,63.2,100,90,66,30.05,29.94,11,0,11,0.00
2013-8-30,83.4,70.6,63.9,74.1,66.9,63.7,100,89,61,29.99,29.74,11,0,11,0.00
2013-8-31,77.7,70.9,67.2,71.1,69.3,67.2,100,95,72,29.78,29.72,10,0,10,0.08
2013-9-1,83.4,73.9,67.8,72.8,69.0,64.6,100,87,55,29.84,29.74,7,0,7,0.21
2013-9-2,77.4,71.2,65.6,72.8,69.7,65.6,100,95,79,29.82,29.66,13,0,13,0.55
2013-9-3,73.9,66.5,61.5,69.1,64.1,61.5,100,93,70,29.76,29.67,12,1,16,0.03
2013-9-4,76.3,65.9,58.4,62.1,59.8,51.9,100,83,49,29.90,29.76,12,1,12,0.18
2013-9-5,66.4,56.9,42.1,60.9,49.2,38.8,100,79,39,30.15,29.85,13,1,14,0.15
2013-9-6,66.9,51.2,38.5,52.0,43.7,38.5,100,80,38,30.27,30.06,11,1,11,0.00
2013-9-7,72.7,59.4,43.5,59.9,54.0,43.5,100,84,50,30.05,29.81,10,0,10,0.01
2013-9-8,60.4,54.5,41.6,57.6,50.1,39.8,100,87,55,30.08,29.74,17,1,17,0.10
2013-9-9,67.4,51.1,36.8,56.6,45.1,36.8,100,84,40,30.22,30.06,12,1,12,0.00
2013-9-10,69.1,56.5,45.1,67.5,56.2,45.1,100,99,91,30.09,29.98,3,0,4,0.12
2013-9-11,89.5,71.6,61.8,76.5,68.2,61.8,100,91,56,30.01,29.84,22,1,24,0.18
2013-9-12,81.8,69.8,65.2,75.7,68.3,65.0,100,96,73,29.94,29.59,12,0,13,1.37
2013-9-13,65.3,60.7,55.4,65.3,60.7,55.4,100,100,98,29.79,29.57,10,0,10,0.48
2013-9-14,59.2,54.5,49.1,56.1,53.5,49.1,100,97,79,30.07,29.78,2,0,7,0.06
2013-9-15,67.3,53.9,42.9,58.7,50.5,42.9,100,90,57,30.14,29.98,7,1,8,0.00
2013-9-16,56.5,51.1,37.9,56.5,47.7,37.3,100,89,62,30.31,29.98,17,1,17,0.10
2013-9-17,63.1,46.3,34.0,48.7,40.3,34.0,100,84,43,30.46,30.31,11,1,11,0.00
2013-9-18,67.1,49.1,35.8,53.7,44.0,35.8,100,86,41,30.33,30.10,8,0,8,0.00
2013-9-19,73.1,52.7,39.8,56.4,47.5,39.8,100,86,40,30.16,30.00,8,0,8,0.00
2013-9-20,76.1,53.5,42.9,60.0,49.8,42.9,100,89,45,30.11,29.93,9,1,14,0.00
2013-9-21,71.9,59.8,44.9,60.7,52.9,44.9,100,81,48,29.95,29.58,21,3,24,0.01
2013-9-22,67.1,56.7,45.8,62.7,53.6,41.4,100,90,71,29.84,29.48,17,1,21,0.52
2013-9-23,47.7,44.8,41.8,42.9,39.8,36.9,96,83,72,30.01,29.83,12,1,12,0.00
2013-9-24,55.6,47.8,43.3,47.0,42.0,37.0,100,81,57,30.00,29.87,11,0,11,0.00
2013-9-25,56.5,50.0,44.2,47.9,46.5,43.9,100,89,70,30.00,29.89,10,0,10,0.00
2013-9-26,61.2,51.3,41.0,50.0,46.3,41.0,100,85,59,30.14,30.00,13,1,13,0.00
2013-9-27,66.6,55.1,46.1,56.8,50.6,46.1,100,87,53,30.28,30.14,8,0,8,0.00
2013-9-28,71.0,53.3,41.7,55.2,48.3,41.7,100,86,45,30.38,30.22,8,1,8,0.00
2013-9-29,70.7,53.0,42.1,56.0,48.5,42.1,100,87,48,30.25,30.05,8,1,9,0.00
2013-9-30,69.1,51.2,40.4,54.8,46.8,40.4,100,88,46,30.12,29.94,6,0,6,0.01
2013-10-1,73.3,53.4,40.7,58.3,48.8,40.7,100,87,49,30.02,29.83,8,0,9,0.00
2013-10-2,74.0,56.3,47.9,60.1,52.6,47.9,100,89,53,29.94,29.78,16,0,16,0.00
2013-10-3,71.0,53.2,40.0,53.9,46.4,40.0,100,82,41,30.09,29.94,7,0,7,0.01
2013-10-4,64.4,50.3,37.8,56.7,47.7,37.8,100,92,67,30.12,30.02,7,0,7,0.00
2013-10-5,62.3,54.4,46.0,53.7,51.0,46.0,100,89,62,30.14,30.05,4,0,4,0.00
2013-10-6,55.0,48.4,45.7,47.9,44.9,36.0,100,89,53,30.18,30.08,16,1,16,0.29
2013-10-7,71.2,56.4,47.9,63.5,54.7,47.9,100,95,73,30.08,29.58,33,2,33,0.40
2013-10-8,57.7,47.3,34.3,48.6,39.9,32.6,100,79,41,30.40,29.86,12,1,12,0.00
2013-10-9,61.2,41.6,29.9,44.0,36.2,29.9,100,85,41,30.51,30.35,13,1,13,0.00
2013-10-10,63.3,43.5,31.5,49.9,39.6,31.5,100,89,48,30.37,30.19,7,0,7,0.00
2013-10-11,68.4,48.7,37.6,50.8,42.9,37.6,100,84,37,30.20,30.10,8,0,8,0.00
2013-10-12,67.6,49.2,34.4,53.8,44.8,34.4,100,87,58,30.37,30.19,12,1,12,0.00
2013-10-13,60.9,51.3,40.0,49.5,46.4,39.8,100,84,62,30.43,30.32,14,1,14,0.00
2013-10-14,55.8,46.7,37.3,52.3,45.6,37.3,100,96,77,30.36,30.23,7,0,7,0.07
2013-10-15,63.0,54.6,48.2,55.4,51.9,48.2,100,91,74,30.26,30.13,8,1,8,0.00
2013-10-16,62.7,53.1,45.2,51.6,48.9,45.2,100,87,61,30.13,29.83,17,1,18,0.00
2013-10-17,65.3,53.4,45.1,54.5,48.8,44.7,100,87,52,29.84,29.68,10,0,10,0.02
2013-10-18,59.9,49.3,37.8,52.8,46.5,37.5,100,92,59,29.87,29.55,11,0,11,0.42
2013-10-19,60.9,45.9,31.2,48.8,40.0,31.2,100,83,47,29.94,29.66,17,1,17,0.01
2013-10-20,54.4,46.5,32.8,47.6,38.7,30.4,100,78,41,29.98,29.60,17,1,17,0.00
2013-10-21,60.1,42.7,27.3,44.2,36.8,27.3,100,83,47,30.09,29.86,18,1,18,0.00
2013-10-22,54.7,47.5,32.1,47.3,41.1,32.1,100,80,52,29.86,29.65,19,2,19,0.02
2013-10-23,48.8,36.6,29.4,39.8,32.4,29.4,100,87,51,29.77,29.58,10,0,10,0.00
2013-10-24,43.2,34.8,25.6,35.6,30.5,24.9,100,87,49,29.84,29.63,13,1,14,0.01
2013-10-25,40.4,35.0,31.9,35.7,30.8,23.9,100,86,54,30.10,29.84,10,0,10,0.00
2013-10-26,43.6,36.0,26.0,34.6,29.1,25.2,100,78,50,30.11,29.80,19,1,19,0.00
2013-10-27,45.1,36.7,28.1,37.2,31.6,25.7,100,83,49,30.01,29.74,14,0,14,0.00
2013-10-28,44.9,33.0,22.8,37.3,27.2,19.8,100,81,48,30.37,30.00,17,1,17,0.00
2013-10-29,41.6,26.7,16.7,24.7,19.8,14.9,100,78,36,30.49,30.35,8,0,8,0.02
2013-10-30,40.8,30.3,21.6,31.5,25.1,18.9,93,82,62,30.36,30.18,7,0,7,0.00
2013-10-31,49.4,37.3,26.2,49.4,36.4,25.5,100,97,81,30.24,29.66,8,0,8,0.01
2013-11-1,63.8,57.0,45.7,61.2,52.1,40.3,100,86,48,29.66,29.20,26,3,26,0.30
2013-11-2,54.0,43.6,34.1,46.1,39.8,33.5,100,88,64,29.83,29.58,11,1,12,0.03
2013-11-3,37.6,30.7,20.4,33.5,20.1,12.0,90,66,38,30.47,29.82,17,2,17,0.00
2013-11-4,36.7,24.5,15.6,20.0,16.5,13.2,96,75,39,30.70,30.47,11,1,11,0.00
2013-11-5,46.0,29.7,18.6,27.4,22.0,16.6,96,76,42,30.70,30.46,18,1,18,0.00
2013-11-6,55.8,41.9,25.9,43.4,34.2,24.5,97,76,51,30.46,29.88,18,2,18,0.00
2013-11-7,53.1,45.1,34.5,50.3,40.6,24.6,100,85,67,29.88,29.67,28,1,28,0.20
2013-11-8,40.0,32.3,26.0,29.6,25.4,20.5,98,77,58,30.05,29.81,8,1,13,0.00
2013-11-9,38.7,33.3,29.9,26.6,22.0,19.2,82,64,47,30.16,29.97,9,1,9,0.00
2013-11-10,41.6,34.4,30.6,39.6,33.4,26.9,100,96,83,29.97,29.68,11,1,11,0.11
2013-11-11,40.0,35.9,31.5,31.4,27.7,24.7,93,73,57,30.07,29.79,17,2,18,0.00
2013-11-12,39.6,25.5,22.5,32.5,17.7,13.0,95,72,63,30.22,29.80,14,1,14,0.06
2013-11-13,28.2,22.5,17.2,16.0,11.6,7.8,82,63,42,30.29,30.05,12,1,12,0.00
2013-11-14,41.4,27.8,20.0,27.9,22.3,15.7,99,81,57,30.07,29.99,11,0,11,0.00
2013-11-15,51.0,28.9,19.6,28.0,22.8,18.0,100,82,27,30.20,30.06,7,0,9,0.00
2013-11-16,55.9,34.0,24.5,30.7,25.7,21.4,97,77,27,30.30,30.18,8,0,8,0.00
2013-11-17,48.8,34.6,23.1,48.5,33.8,23.0,100,97,88,30.29,29.75,11,1,11,0.13
2013-11-18,58.0,49.3,33.8,55.7,41.6,27.9,100,77,43,29.75,29.36,26,4,27,0.24
2013-11-19,41.6,30.0,25.7,29.3,19.0,13.7,82,64,52,30.32,29.58,17,2,17,0.00
2013-11-20,35.1,25.4,16.3,17.6,13.3,8.9,91,62,35,30.66,30.32,18,1,18,0.00
2013-11-21,39.7,24.0,12.4,21.6,15.9,11.5,97,75,32,30.67,30.35,13,0,13,0.00
2013-11-22,31.8,27.5,21.7,31.0,25.7,18.7,100,93,81,30.35,29.77,5,0,5,0.06
2013-11-23,33.4,28.3,18.5,31.5,21.2,11.1,100,76,48,29.93,29.71,14,1,14,0.04
2013-11-24,18.3,14.7,10.8,11.4,3.5,-3.0,75,61,46,30.19,29.79,19,2,22,0.00
2013-11-25,24.7,15.0,4.4,14.6,2.4,-7.9,84,59,30,30.38,30.16,10,1,11,0.00
2013-11-26,31.9,27.4,22.9,29.0,22.5,14.8,100,82,70,30.26,30.02,14,1,14,0.11
2013-11-27,49.7,36.1,28.8,48.3,36.0,27.1,100,99,91,30.02,29.28,14,1,17,0.68
2013-11-28,29.6,19.1,8.4,27.3,11.8,5.0,92,74,52,30.42,29.43,17,2,17,0.01
2013-11-29,22.2,9.5,2.5,9.9,4.7,0.0,93,82,47,30.78,30.42,11,0,11,0.00
2013-11-30,26.5,13.6,-1.4,17.1,5.1,-4.6,90,71,38,30.84,30.33,21,1,21,0.00
2013-12-1,33.5,28.8,25.7,30.2,23.2,12.5,100,80,55,30.33,30.04,15,1,16,0.00
2013-12-2,34.0,29.5,26.3,31.4,28.8,26.1,100,97,90,30.04,29.91,5,0,5,0.00
2013-12-3,32.2,30.0,28.1,31.9,29.8,27.9,100,99,96,29.96,29.90,7,0,7,0.00
2013-12-4,36.4,28.9,21.7,28.7,24.4,21.5,100,84,62,30.18,29.96,12,0,12,0.00
2013-12-5,37.3,30.0,21.0,36.2,29.0,20.8,100,96,88,30.19,29.84,5,0,5,0.01
2013-12-6,37.6,34.5,29.4,37.6,34.1,29.3,100,99,87,30.12,29.85,6,0,7,0.29
2013-12-7,29.3,25.4,17.7,29.3,16.4,8.8,100,70,45,30.44,30.08,13,1,13,0.00
2013-12-8,25.1,19.1,12.9,13.3,10.1,6.2,89,69,45,30.58,30.44,11,1,11,0.00
2013-12-9,30.9,25.7,19.4,28.1,21.1,11.8,99,83,70,30.47,29.83,27,2,27,0.00
2013-12-10,29.1,24.4,15.0,28.2,20.5,9.4,100,86,62,29.91,29.75,5,0,8,0.00
2013-12-11,23.9,16.3,8.2,19.5,12.7,5.4,96,86,64,30.15,29.91,17,2,17,0.09
2013-12-12,13.4,5.0,-2.4,6.8,-0.1,-5.6,93,80,51,30.30,29.96,11,1,11,0.00
2013-12-13,15.8,8.3,-5.3,10.7,1.4,-10.1,93,73,56,30.43,29.89,13,1,13,0.01
2013-12-14,6.8,-1.0,-10.2,3.9,-8.3,-14.0,88,72,47,30.64,30.21,7,1,7,0.07
2013-12-15,21.9,16.1,6.7,20.2,14.1,3.9,97,92,86,30.21,29.50,5,0,6,0.40
2013-12-16,16.1,4.4,-10.9,8.0,-2.1,-15.4,93,75,50,30.27,29.67,16,0,16,0.01
2013-12-17,6.8,-5.6,-21.5,3.5,-10.8,-26.9,86,78,62,30.34,30.06,7,0,7,0.02
2013-12-18,25.9,14.0,6.7,18.4,10.4,3.4,96,86,67,30.06,29.90,6,0,6,0.00
2013-12-19,29.3,22.6,14.8,25.6,20.8,13.6,97,93,78,30.06,29.90,5,0,5,0.01
2013-12-20,31.3,28.9,26.0,31.3,28.7,25.5,100,99,96,30.08,29.87,3,0,3,0.10
2013-12-21,36.7,33.0,30.9,36.7,33.0,30.9,100,100,100,29.88,29.77,4,0,5,0.19
2013-12-22,36.0,33.0,31.8,35.8,33.0,31.8,100,100,100,29.96,29.65,8,0,8,0.38
2013-12-23,33.3,31.9,28.8,33.3,31.8,25.7,100,100,90,30.12,29.95,8,0,8,0.17
2013-12-24,28.8,19.5,5.9,25.4,12.0,-4.0,87,73,54,30.29,30.07,12,1,12,0.00
2013-12-25,12.7,5.1,-0.8,4.9,-3.5,-8.8,87,68,49,30.56,30.29,12,1,12,0.00
2013-12-26,24.4,16.0,8.0,22.2,14.0,4.9,96,92,82,30.44,30.08,6,0,6,0.05
2013-12-27,31.0,22.3,17.0,22.6,17.9,15.3,97,84,55,30.19,30.12,12,1,12,0.00
2013-12-28,30.7,23.1,11.6,27.8,21.5,10.7,100,93,80,30.14,29.95,6,0,6,0.00
2013-12-29,33.8,26.2,17.8,33.8,26.0,17.8,100,99,93,30.00,29.55,3,0,3,0.56
2013-12-30,33.2,19.1,0.2,33.2,16.0,-3.7,100,88,72,30.24,29.55,0,0,1,0.00
2013-12-31,10.1,4.5,-0.7,5.4,0.1,-4.5,91,82,63,30.22,30.03,0,0,0,0.00
2014-1-1,16.6,8.1,-0.7,9.3,3.7,-7.8,93,82,61,30.44,30.12,0,0,0,0.07
2014-1-2,3.8,0.7,-2.7,0.8,-4.1,-10.3,87,80,69,30.43,29.97,0,0,0,0.17